Time;durP1;ratioP1;P1;durP2;ratioP2;P2;SDS_P1;SDS_P2;PMS_P1;PMS_P2;Temp;Humidity;BMP_temperature;BMP_pressure;BME280_temperature;BME280_humidity;BME280_pressure;Samples;Min_cycle;Max_cycle;Signal;HPM_P1;HPM_P2
2021/06/28 00:00:20;;;;;;;5.97;5.47;;;21.30;99.90;;;;;;4997793;28;20034;-84
2021/06/28 00:02:46;;;;;;;6.90;5.32;;;21.10;99.90;;;;;;5011633;28;20036;-84
2021/06/28 00:05:14;;;;;;;5.47;4.93;;;21.00;99.90;;;;;;5011728;28;20030;-84
2021/06/28 00:07:41;;;;;;;4.88;4.28;;;20.90;99.90;;;;;;5011338;28;20069;-84
2021/06/28 00:10:08;;;;;;;6.07;4.40;;;20.90;99.90;;;;;;5011873;28;20050;-84
2021/06/28 00:12:35;;;;;;;4.35;3.95;;;20.80;99.90;;;;;;5011952;28;20109;-84
2021/06/28 00:15:00;;;;;;;4.88;3.80;;;20.70;99.90;;;;;;5012076;28;20037;-84
2021/06/28 00:17:27;;;;;;;5.20;3.83;;;20.60;99.90;;;;;;5011555;28;20397;-84
2021/06/28 00:19:53;;;;;;;5.57;3.95;;;20.70;99.90;;;;;;5011374;28;20410;-84
2021/06/28 00:22:19;;;;;;;4.40;3.65;;;20.60;99.90;;;;;;5011359;28;20034;-84
2021/06/28 00:24:44;;;;;;;4.25;3.83;;;20.50;99.90;;;;;;5016000;28;20057;-83
2021/06/28 00:27:10;;;;;;;6.55;4.15;;;20.50;99.90;;;;;;5016228;28;20026;-84
2021/06/28 00:29:35;;;;;;;5.90;4.03;;;20.40;99.90;;;;;;5015645;28;20501;-84
2021/06/28 00:32:01;;;;;;;5.88;3.95;;;20.40;99.90;;;;;;5015450;28;20087;-84
2021/06/28 00:34:29;;;;;;;4.78;3.70;;;20.30;99.90;;;;;;5015392;28;20503;-84
2021/06/28 00:36:56;;;;;;;7.32;3.70;;;20.20;99.90;;;;;;5015574;28;20037;-84
2021/06/28 00:39:21;;;;;;;4.13;3.72;;;20.20;99.90;;;;;;5016252;28;20025;-85
2021/06/28 00:41:47;;;;;;;4.88;3.78;;;20.20;99.90;;;;;;5015851;28;20041;-84
2021/06/28 00:44:13;;;;;;;7.10;4.28;;;20.20;99.90;;;;;;5015321;28;20022;-84
2021/06/28 00:46:38;;;;;;;4.55;3.95;;;20.20;99.90;;;;;;5015500;28;20453;-84
2021/06/28 00:49:04;;;;;;;5.15;4.38;;;20.20;99.90;;;;;;5014666;28;20037;-84
2021/06/28 00:51:29;;;;;;;5.03;4.00;;;20.10;99.90;;;;;;5015605;28;20026;-84
2021/06/28 00:53:56;;;;;;;7.70;4.20;;;20.00;99.90;;;;;;5016184;28;20382;-84
2021/06/28 00:56:22;;;;;;;4.32;3.92;;;20.10;99.90;;;;;;5015124;28;20045;-84
2021/06/28 00:58:48;;;;;;;6.20;4.22;;;20.00;99.90;;;;;;5015026;28;20422;-84
2021/06/28 01:01:15;;;;;;;5.85;4.05;;;20.00;99.90;;;;;;5015060;28;20033;-84
2021/06/28 01:03:41;;;;;;;4.35;3.92;;;19.90;99.90;;;;;;5014996;28;20030;-84
2021/06/28 01:06:14;;;;;;;3.90;3.55;;;19.80;99.90;;;;;;5015919;28;20076;-84
2021/06/28 01:08:40;;;;;;;5.95;3.90;;;19.70;99.90;;;;;;5015172;28;20053;-84
2021/06/28 01:11:06;;;;;;;7.10;4.25;;;19.80;99.90;;;;;;5014769;28;20048;-84
2021/06/28 01:13:36;;;;;;;7.50;4.43;;;19.80;99.90;;;;;;5015215;28;20160;-84
2021/06/28 01:16:03;;;;;;;5.93;4.15;;;19.70;99.90;;;;;;5014896;28;20024;-84
2021/06/28 01:18:30;;;;;;;4.65;4.20;;;19.70;99.90;;;;;;5014940;28;20092;-84
2021/06/28 01:20:56;;;;;;;5.63;4.50;;;19.80;99.90;;;;;;5013988;28;20032;-84
2021/06/28 01:23:24;;;;;;;4.32;3.92;;;19.80;99.90;;;;;;5013657;28;20084;-84
2021/06/28 01:26:04;;;;;;;5.90;4.10;;;19.70;99.90;;;;;;5014596;28;20113;-84
2021/06/28 01:28:30;;;;;;;4.95;4.03;;;19.60;99.90;;;;;;5014858;28;20092;-84
2021/06/28 01:30:59;;;;;;;4.85;4.00;;;19.60;99.90;;;;;;5014233;28;20026;-83
2021/06/28 01:33:24;;;;;;;4.72;4.13;;;19.60;99.90;;;;;;5014818;28;20030;-84
2021/06/28 01:35:50;;;;;;;3.88;3.58;;;19.60;99.90;;;;;;5014742;28;20037;-84
2021/06/28 01:38:16;;;;;;;6.63;4.03;;;19.60;99.90;;;;;;5012608;28;20029;-84
2021/06/28 01:40:42;;;;;;;5.00;3.88;;;19.60;99.90;;;;;;5014376;28;20026;-84
2021/06/28 01:43:08;;;;;;;5.90;4.03;;;19.60;99.90;;;;;;5013902;28;20101;-84
2021/06/28 01:45:34;;;;;;;5.78;3.97;;;19.60;99.90;;;;;;5014427;28;20022;-84
2021/06/28 01:48:01;;;;;;;4.22;3.65;;;19.70;99.90;;;;;;5014859;28;20072;-84
2021/06/28 01:50:30;;;;;;;6.53;3.95;;;19.70;99.90;;;;;;5014146;28;20090;-84
2021/06/28 01:52:56;;;;;;;4.60;3.80;;;19.70;99.90;;;;;;5014131;28;20030;-84
2021/06/28 01:55:22;;;;;;;4.60;3.50;;;19.80;99.90;;;;;;5014170;28;20033;-84
2021/06/28 01:57:57;;;;;;;4.43;3.97;;;19.80;99.90;;;;;;5013374;28;20509;-84
2021/06/28 02:00:27;;;;;;;4.45;3.70;;;19.80;99.90;;;;;;5010383;28;20033;-84
2021/06/28 02:03:12;;;;;;;4.78;3.45;;;19.70;99.90;;;;;;5013969;28;20393;-83
2021/06/28 02:05:58;;;;;;;3.70;3.40;;;19.80;99.90;;;;;;5013783;28;20148;-84
2021/06/28 02:08:30;;;;;;;5.18;3.50;;;19.90;99.90;;;;;;5013551;28;20538;-84
2021/06/28 02:11:02;;;;;;;4.03;3.42;;;19.90;99.90;;;;;;5014071;28;20557;-84
2021/06/28 02:13:31;;;;;;;5.50;3.95;;;19.80;99.90;;;;;;5012581;28;20113;-84
2021/06/28 02:15:57;;;;;;;4.03;3.72;;;19.80;99.90;;;;;;5013799;28;20033;-84
2021/06/28 02:18:25;;;;;;;6.40;4.10;;;19.90;99.90;;;;;;5013133;28;20037;-83
2021/06/28 02:20:51;;;;;;;4.93;3.75;;;19.80;99.90;;;;;;5013459;28;20037;-84
2021/06/28 02:23:32;;;;;;;5.13;3.63;;;19.60;99.90;;;;;;5013957;28;20127;-84
2021/06/28 02:25:59;;;;;;;4.82;3.50;;;19.80;99.90;;;;;;5013314;28;20480;-84
2021/06/28 02:28:27;;;;;;;5.60;3.75;;;19.90;99.90;;;;;;5013636;28;20474;-84
2021/06/28 02:30:54;;;;;;;3.90;3.60;;;19.90;99.90;;;;;;5013704;28;20032;-83
2021/06/28 02:33:20;;;;;;;4.40;4.00;;;19.90;99.90;;;;;;5009982;28;20087;-85
2021/06/28 02:35:46;;;;;;;5.00;3.90;;;20.00;99.90;;;;;;5013126;28;20037;-84
2021/06/28 02:38:12;;;;;;;4.25;3.90;;;20.00;99.90;;;;;;5013605;28;20022;-85
2021/06/28 02:40:37;;;;;;;4.78;3.75;;;20.00;99.90;;;;;;5013438;28;20030;-84
2021/06/28 02:43:03;;;;;;;4.95;3.90;;;20.10;99.90;;;;;;5013087;28;20044;-84
2021/06/28 02:45:29;;;;;;;6.85;3.92;;;20.10;99.90;;;;;;5012894;28;20026;-84
2021/06/28 02:47:55;;;;;;;4.97;4.15;;;20.10;99.90;;;;;;5013605;28;20064;-84
2021/06/28 02:50:20;;;;;;;5.18;4.53;;;20.10;99.90;;;;;;5012938;28;20504;-84
2021/06/28 02:52:48;;;;;;;5.00;4.50;;;20.00;99.90;;;;;;5013068;28;20010;-85
2021/06/28 02:55:14;;;;;;;6.10;4.38;;;20.00;99.90;;;;;;5013566;28;20038;-84
2021/06/28 02:57:41;;;;;;;8.00;5.78;;;20.10;99.90;;;;;;5012589;28;20026;-84
2021/06/28 03:00:13;;;;;;;6.45;5.85;;;20.10;99.90;;;;;;5013516;28;20041;-84
2021/06/28 03:02:39;;;;;;;6.53;5.80;;;20.10;99.90;;;;;;5012881;28;20040;-84
2021/06/28 03:05:06;;;;;;;6.72;6.03;;;20.10;99.90;;;;;;5012884;28;20026;-84
2021/06/28 03:07:32;;;;;;;6.90;6.30;;;20.00;1.00;;;;;;5012876;28;20042;-85
2021/06/28 03:09:58;;;;;;;7.40;6.43;;;20.10;1.00;;;;;;5012769;28;20060;-84
2021/06/28 03:12:23;;;;;;;9.35;6.57;;;19.90;1.00;;;;;;5012726;28;20057;-84
2021/06/28 03:14:49;;;;;;;7.15;6.45;;;19.80;1.00;;;;;;5013051;28;20040;-84
2021/06/28 03:17:15;;;;;;;10.13;6.63;;;19.70;1.00;;;;;;5012621;28;20022;-84
2021/06/28 03:19:40;;;;;;;8.38;7.30;;;19.60;1.00;;;;;;5012685;28;20121;-84
2021/06/28 03:22:06;;;;;;;7.60;6.75;;;19.70;1.00;;;;;;5012544;28;20046;-84
2021/06/28 03:24:32;;;;;;;7.18;6.47;;;19.70;1.00;;;;;;5012715;28;20069;-84
2021/06/28 03:26:58;;;;;;;7.07;6.38;;;19.60;1.00;;;;;;5011266;28;20489;-84
2021/06/28 03:29:24;;;;;;;7.45;6.63;;;19.70;1.00;;;;;;5012357;28;20115;-84
2021/06/28 03:31:49;;;;;;;9.13;6.78;;;19.60;1.00;;;;;;5012765;28;20029;-84
2021/06/28 03:34:15;;;;;;;7.65;6.85;;;19.60;1.00;;;;;;5012707;28;20041;-84
2021/06/28 03:36:44;;;;;;;7.85;6.53;;;19.50;1.00;;;;;;5012288;28;20037;-84
2021/06/28 03:39:10;;;;;;;7.55;6.57;;;19.60;1.00;;;;;;5012632;28;20120;-84
2021/06/28 03:41:36;;;;;;;8.10;6.63;;;19.50;1.00;;;;;;5012124;28;20030;-84
2021/06/28 03:44:03;;;;;;;10.88;6.60;;;19.60;1.00;;;;;;5012279;28;20033;-84
2021/06/28 03:46:28;;;;;;;9.35;6.78;;;19.60;1.00;;;;;;5012292;28;20395;-84
2021/06/28 03:48:54;;;;;;;10.32;7.30;;;19.70;1.00;;;;;;5012157;28;20026;-83
2021/06/28 03:51:20;;;;;;;7.97;7.07;;;19.70;1.00;;;;;;5012693;28;20376;-84
2021/06/28 03:53:46;;;;;;;7.78;6.88;;;19.70;1.00;;;;;;5012185;28;20064;-84
2021/06/28 03:56:14;;;;;;;8.27;7.13;;;19.80;1.00;;;;;;5011679;28;20022;-83
2021/06/28 03:58:40;;;;;;;8.77;7.32;;;19.80;1.00;;;;;;5011748;28;20034;-84
2021/06/28 04:01:07;;;;;;;8.60;6.78;;;19.80;1.00;;;;;;5011086;28;20096;-84
2021/06/28 04:03:35;;;;;;;8.52;6.97;;;19.80;1.00;;;;;;5012414;28;20106;-84
2021/06/28 04:06:06;;;;;;;7.93;7.13;;;19.80;1.00;;;;;;5011938;28;20460;-84
2021/06/28 04:08:37;;;;;;;8.73;6.70;;;19.90;1.00;;;;;;5011756;28;20053;-83
2021/06/28 04:11:04;;;;;;;8.25;6.55;;;19.80;1.00;;;;;;5011350;28;20049;-83
2021/06/28 04:13:30;;;;;;;6.30;5.50;;;19.80;1.00;;;;;;5011639;28;20088;-84
2021/06/28 04:15:55;;;;;;;6.30;5.60;;;19.90;1.00;;;;;;5012279;28;20029;-84
2021/06/28 04:18:21;;;;;;;6.13;5.53;;;20.00;1.00;;;;;;5012487;28;20053;-84
2021/06/28 04:20:48;;;;;;;7.45;5.65;;;20.00;1.00;;;;;;5011806;28;20026;-85
2021/06/28 04:23:14;;;;;;;11.23;5.95;;;20.00;1.00;;;;;;5011627;28;20030;-84
2021/06/28 04:25:40;;;;;;;7.65;5.60;;;20.10;1.00;;;;;;5011242;28;20038;-84
2021/06/28 04:28:06;;;;;;;8.55;6.07;;;20.10;1.00;;;;;;5011858;28;20026;-85
2021/06/28 04:30:32;;;;;;;6.35;5.40;;;20.10;1.00;;;;;;5011942;28;20037;-84
2021/06/28 04:32:58;;;;;;;5.88;5.18;;;20.00;1.00;;;;;;5012027;28;20034;-84
2021/06/28 04:35:26;;;;;;;5.40;4.90;;;20.10;1.00;;;;;;5011872;28;20121;-84
2021/06/28 04:37:53;;;;;;;6.78;5.65;;;20.10;1.00;;;;;;5011206;28;20494;-84
2021/06/28 04:40:22;;;;;;;8.80;5.28;;;20.10;1.00;;;;;;5009883;28;20032;-84
2021/06/28 04:42:47;;;;;;;7.22;5.40;;;20.10;1.00;;;;;;5011286;28;20037;-84
2021/06/28 04:45:15;;;;;;;6.28;5.68;;;20.10;1.00;;;;;;5012430;28;20097;-84
2021/06/28 04:47:41;;;;;;;7.45;6.00;;;20.10;1.00;;;;;;5011431;28;20092;-83
2021/06/28 04:50:08;;;;;;;6.30;5.70;;;20.20;1.00;;;;;;5011495;28;20022;-86
2021/06/28 04:52:36;;;;;;;5.85;5.35;;;20.20;1.00;;;;;;5011185;28;20367;-84
2021/06/28 04:55:07;;;;;;;6.45;5.38;;;20.20;1.00;;;;;;5010532;28;20033;-84
2021/06/28 04:57:33;;;;;;;6.30;5.68;;;20.30;1.00;;;;;;5011798;28;20026;-84
2021/06/28 04:59:59;;;;;;;6.82;5.95;;;20.40;1.00;;;;;;5026698;28;20406;-84
2021/06/28 05:02:25;;;;;;;6.18;5.57;;;20.50;1.00;;;;;;5010926;28;20049;-84
2021/06/28 05:04:51;;;;;;;8.80;5.22;;;20.40;1.00;;;;;;5011041;28;20029;-83
2021/06/28 05:07:17;;;;;;;7.15;5.22;;;20.50;1.00;;;;;;5011567;28;20045;-84
2021/06/28 05:09:44;;;;;;;7.43;6.30;;;20.60;1.00;;;;;;5013457;28;20026;-89
2021/06/28 05:12:11;;;;;;;8.18;6.07;;;20.60;1.00;;;;;;5015928;28;20038;-88
2021/06/28 05:14:38;;;;;;;9.57;6.32;;;20.70;1.00;;;;;;5015930;28;20031;-89
2021/06/28 05:17:04;;;;;;;8.13;6.38;;;20.80;1.00;;;;;;5015801;28;20034;-90
2021/06/28 05:19:31;;;;;;;6.80;6.10;;;20.80;1.00;;;;;;5014345;28;20018;-87
2021/06/28 05:21:56;;;;;;;6.78;5.80;;;20.70;1.00;;;;;;5015942;28;20044;-86
2021/06/28 05:24:22;;;;;;;6.47;5.47;;;20.80;1.00;;;;;;5016095;28;20022;-87
2021/06/28 05:26:48;;;;;;;7.32;5.78;;;20.90;1.00;;;;;;5014747;28;20038;-87
2021/06/28 05:29:13;;;;;;;10.15;6.20;;;20.90;1.00;;;;;;5015726;28;20029;-84
2021/06/28 05:31:39;;;;;;;8.98;6.50;;;21.00;1.00;;;;;;5014902;28;20026;-87
2021/06/28 05:34:05;;;;;;;7.10;6.40;;;21.20;1.00;;;;;;5015439;28;20022;-91
2021/06/28 05:36:31;;;;;;;6.35;5.80;;;21.10;1.00;;;;;;5015112;28;20491;-89
2021/06/28 05:38:56;;;;;;;7.35;6.15;;;21.20;1.00;;;;;;5013644;28;20040;-88
2021/06/28 05:41:22;;;;;;;6.57;5.97;;;21.20;1.00;;;;;;5012553;28;20458;-89
2021/06/28 05:43:48;;;;;;;6.53;5.82;;;21.20;1.00;;;;;;5014208;28;20053;-88
2021/06/28 05:46:13;;;;;;;7.57;6.45;;;21.20;1.00;;;;;;5014140;28;20085;-88
2021/06/28 05:48:39;;;;;;;7.82;5.88;;;21.30;1.00;;;;;;5014806;28;20076;-90
2021/06/28 05:51:05;;;;;;;7.10;6.40;;;21.30;1.00;;;;;;5014835;28;20042;-87
2021/06/28 05:53:34;;;;;;;7.00;6.35;;;21.30;1.00;;;;;;5014010;28;20010;-86
2021/06/28 05:56:02;;;;;;;6.85;6.15;;;21.30;1.00;;;;;;5010832;28;20089;-87
2021/06/28 05:58:29;;;;;;;7.40;6.68;;;21.60;1.00;;;;;;5006882;28;20057;-87
2021/06/28 06:00:56;;;;;;;6.65;5.90;;;21.60;99.90;;;;;;5013258;28;20479;-87
2021/06/28 06:03:22;;;;;;;9.45;6.20;;;21.80;99.90;;;;;;5015141;28;20065;-88
2021/06/28 06:05:48;;;;;;;8.18;6.63;;;21.80;99.90;;;;;;5017709;28;20061;-88
2021/06/28 06:08:14;;;;;;;8.38;6.13;;;21.80;99.90;;;;;;5013896;28;20050;-88
2021/06/28 06:10:40;;;;;;;9.50;6.43;;;21.80;99.90;;;;;;5013707;28;20101;-88
2021/06/28 06:13:05;;;;;;;7.57;5.78;;;21.90;99.90;;;;;;5014709;28;20034;-86
2021/06/28 06:15:31;;;;;;;8.35;6.25;;;22.10;99.90;;;;;;5012907;28;20490;-87
2021/06/28 06:17:57;;;;;;;6.93;6.32;;;21.90;99.90;;;;;;5014116;28;20609;-86
2021/06/28 06:20:22;;;;;;;10.57;6.20;;;21.80;99.90;;;;;;5012574;28;20029;-87
2021/06/28 06:22:48;;;;;;;9.18;6.15;;;21.80;99.90;;;;;;5013628;28;20042;-88
2021/06/28 06:25:15;;;;;;;6.25;5.47;;;22.00;99.90;;;;;;5013241;28;20022;-88
2021/06/28 06:27:41;;;;;;;8.18;5.20;;;22.40;99.90;;;;;;5013362;28;20018;-89
2021/06/28 06:30:08;;;;;;;7.63;5.65;;;22.80;99.90;;;;;;5014291;28;20514;-89
2021/06/28 06:32:34;;;;;;;6.20;5.28;;;22.80;99.90;;;;;;5014443;28;20056;-89
2021/06/28 06:35:00;;;;;;;8.95;5.50;;;22.80;99.90;;;;;;5013937;28;20057;-91
2021/06/28 06:37:25;;;;;;;8.02;5.45;;;22.90;99.90;;;;;;5014067;28;20045;-90
2021/06/28 06:39:52;;;;;;;6.05;5.13;;;22.70;99.90;;;;;;5014295;28;20062;-89
2021/06/28 06:42:17;;;;;;;6.22;4.82;;;22.80;99.90;;;;;;5013910;28;20831;-89
2021/06/28 06:44:44;;;;;;;7.03;4.80;;;23.10;99.90;;;;;;5014062;28;20069;-88
2021/06/28 06:47:10;;;;;;;6.63;5.13;;;23.30;99.90;;;;;;5012912;28;20113;-87
2021/06/28 06:49:36;;;;;;;5.90;4.90;;;23.20;99.90;;;;;;5012472;28;20542;-87
2021/06/28 06:52:02;;;;;;;8.52;5.07;;;22.80;99.90;;;;;;5014248;28;20121;-83
2021/06/28 06:54:28;;;;;;;5.28;4.72;;;23.00;99.90;;;;;;5013211;28;20050;-81
2021/06/28 06:56:54;;;;;;;5.00;4.50;;;22.70;99.90;;;;;;5013679;28;20052;-89
2021/06/28 06:59:19;;;;;;;5.20;4.80;;;23.00;99.90;;;;;;5015053;28;20099;-93
2021/06/28 07:01:45;;;;;;;5.55;4.88;;;22.80;99.90;;;;;;5013537;28;20037;-88
2021/06/28 07:04:11;;;;;;;6.00;4.47;;;22.20;99.90;;;;;;5012297;28;20076;-82
2021/06/28 07:06:37;;;;;;;5.20;4.70;;;22.30;99.90;;;;;;5013214;28;20052;-85
2021/06/28 07:09:03;;;;;;;6.35;4.43;;;22.30;99.90;;;;;;5015181;28;20026;-96
2021/06/28 07:11:29;;;;;;;5.82;4.47;;;22.40;99.90;;;;;;5015761;28;20026;-95
2021/06/28 07:13:55;;;;;;;9.10;4.95;;;22.60;99.90;;;;;;5013458;28;20037;-94
2021/06/28 07:16:25;;;;;;;6.38;4.85;;;22.30;99.90;;;;;;5014361;28;20518;-95
2021/06/28 07:18:51;;;;;;;5.78;4.65;;;22.30;99.90;;;;;;5014529;28;20116;-95
2021/06/28 07:21:17;;;;;;;7.38;4.68;;;22.40;99.90;;;;;;5014436;28;20061;-95
2021/06/28 07:23:43;;;;;;;4.80;4.30;;;22.30;99.90;;;;;;5014818;28;20478;-93
2021/06/28 07:26:08;;;;;;;5.13;4.60;;;22.60;99.90;;;;;;5013943;28;20539;-92
2021/06/28 07:28:35;;;;;;;5.00;4.47;;;22.70;99.90;;;;;;5015641;28;20022;-92
2021/06/28 07:31:01;;;;;;;8.05;4.85;;;22.80;99.90;;;;;;5015259;28;20520;-93
2021/06/28 07:33:28;;;;;;;7.78;4.65;;;23.00;99.90;;;;;;5013547;28;20026;-95
2021/06/28 07:35:54;;;;;;;7.47;4.50;;;23.10;99.90;;;;;;5013581;28;20026;-93
2021/06/28 07:38:21;;;;;;;5.97;4.35;;;23.00;99.90;;;;;;5014477;28;20057;-96
2021/06/28 07:40:46;;;;;;;6.53;4.55;;;22.70;99.90;;;;;;5013218;28;20088;-95
2021/06/28 07:43:12;;;;;;;4.80;4.30;;;22.60;99.90;;;;;;5014561;28;20033;-96
2021/06/28 07:45:38;;;;;;;6.38;4.22;;;22.40;99.90;;;;;;5014183;28;20037;-95
2021/06/28 07:48:04;;;;;;;6.07;5.13;;;22.50;99.90;;;;;;5029674;28;20037;-93
2021/06/28 07:50:30;;;;;;;6.68;4.40;;;22.80;99.90;;;;;;5011749;28;20042;-94
2021/06/28 07:52:56;;;;;;;4.75;4.35;;;22.70;99.90;;;;;;5014564;28;20030;-94
2021/06/28 07:55:22;;;;;;;7.88;4.22;;;23.00;99.90;;;;;;5020904;28;20022;-94
2021/06/28 07:57:48;;;;;;;5.88;4.10;;;23.30;99.90;;;;;;5020643;28;20030;-96
2021/06/28 08:00:17;;;;;;;4.85;4.10;;;23.30;99.90;;;;;;5017372;28;20033;-91
2021/06/28 08:02:43;;;;;;;4.25;3.85;;;23.10;99.90;;;;;;5013385;28;20049;-91
2021/06/28 08:05:10;;;;;;;5.35;4.10;;;23.10;99.90;;;;;;5014034;28;20030;-96
2021/06/28 08:07:35;;;;;;;6.50;3.80;;;22.90;99.90;;;;;;5012430;28;20060;-91
2021/06/28 08:10:08;;;;;;;4.18;3.88;;;22.70;99.90;;;;;;5012895;28;20121;-92
2021/06/28 08:12:33;;;;;;;4.25;3.72;;;22.90;99.90;;;;;;5013943;28;20101;-93
2021/06/28 08:14:59;;;;;;;3.83;3.00;;;23.00;99.90;;;;;;5028787;28;20069;-93
2021/06/28 08:17:25;;;;;;;4.03;2.97;;;22.60;99.90;;;;;;5012822;28;20458;-93
2021/06/28 08:19:51;;;;;;;4.18;2.92;;;23.10;99.90;;;;;;5012835;28;20502;-94
2021/06/28 08:22:17;;;;;;;3.45;2.95;;;23.40;99.90;;;;;;5012980;28;20490;-93
2021/06/28 08:24:43;;;;;;;3.03;2.70;;;23.40;99.90;;;;;;5012194;28;20479;-93
2021/06/28 08:27:09;;;;;;;2.97;2.78;;;23.60;99.90;;;;;;5013957;28;20079;-95
2021/06/28 08:29:35;;;;;;;3.53;2.90;;;23.60;99.90;;;;;;5012456;28;20026;-94
2021/06/28 08:32:01;;;;;;;4.25;3.20;;;24.00;99.90;;;;;;5013027;28;20091;-92
2021/06/28 08:34:26;;;;;;;4.05;3.38;;;24.30;99.90;;;;;;5011646;28;20022;-93
2021/06/28 08:36:53;;;;;;;4.07;3.13;;;24.30;99.90;;;;;;5011632;28;20026;-93
2021/06/28 08:39:19;;;;;;;3.20;2.97;;;24.30;99.90;;;;;;5011963;28;20521;-93
2021/06/28 08:41:52;;;;;;;4.10;3.05;;;24.60;99.90;;;;;;5010945;28;20045;-93
2021/06/28 08:44:19;;;;;;;3.40;3.10;;;24.60;99.90;;;;;;5012191;28;20033;-93
2021/06/28 08:46:45;;;;;;;4.22;3.80;;;24.30;99.90;;;;;;5015672;28;20030;-92
2021/06/28 08:49:10;;;;;;;6.20;3.47;;;24.20;99.90;;;;;;5016161;28;20540;-92
2021/06/28 08:51:36;;;;;;;4.10;3.70;;;24.40;99.90;;;;;;5015204;28;20072;-93
2021/06/28 08:54:09;;;;;;;4.38;3.13;;;24.20;99.90;;;;;;5032354;28;20069;-93
2021/06/28 08:56:37;;;;;;;4.57;3.70;;;24.40;99.90;;;;;;5014579;28;20487;-91
2021/06/28 08:59:04;;;;;;;4.53;3.35;;;23.90;99.90;;;;;;5014562;28;20022;-92
2021/06/28 09:01:34;;;;;;;4.13;3.70;;;24.10;99.90;;;;;;5014558;28;20038;-93
2021/06/28 09:04:00;;;;;;;4.65;4.00;;;24.10;99.90;;;;;;5016151;28;20025;-92
2021/06/28 09:06:27;;;;;;;4.15;3.60;;;23.90;99.90;;;;;;5014941;28;20033;-93
2021/06/28 09:08:53;;;;;;;5.22;4.05;;;24.40;99.90;;;;;;5014598;28;20037;-93
2021/06/28 09:11:19;;;;;;;4.55;3.80;;;24.50;99.90;;;;;;5015035;28;20022;-96
2021/06/28 09:13:47;;;;;;;4.75;3.90;;;24.90;99.90;;;;;;5016176;28;20181;-92
2021/06/28 09:16:18;;;;;;;5.03;3.67;;;25.20;99.90;;;;;;5014794;28;20022;-95
2021/06/28 09:19:10;;;;;;;4.53;4.13;;;25.40;99.90;;;;;;5016677;28;20037;-96
2021/06/28 09:22:01;;;;;;;5.95;4.45;;;25.40;99.90;;;;;;5016763;28;20061;-96
2021/06/28 09:24:40;;;;;;;5.50;3.95;;;25.40;99.90;;;;;;5017819;28;20064;-96
2021/06/28 09:27:09;;;;;;;4.70;3.40;;;25.50;99.90;;;;;;5022010;28;20026;-96
2021/06/28 09:29:36;;;;;;;4.40;4.00;;;25.40;99.90;;;;;;5017957;28;20060;-93
2021/06/28 09:32:10;;;;;;;5.45;3.90;;;25.10;99.90;;;;;;5014756;28;20033;-95
2021/06/28 09:34:37;;;;;;;5.03;4.53;;;25.30;99.90;;;;;;5015143;28;20029;-95
2021/06/28 09:37:03;;;;;;;4.68;4.10;;;25.40;99.90;;;;;;5015789;28;20033;-94
2021/06/28 09:39:37;;;;;;;7.38;4.30;;;25.60;99.90;;;;;;5016747;28;20053;-95
2021/06/28 09:42:06;;;;;;;3.95;3.55;;;26.10;99.90;;;;;;5016419;28;20080;-94
2021/06/28 09:44:32;;;;;;;4.30;3.90;;;26.30;99.90;;;;;;5014582;28;20022;-91
2021/06/28 09:47:15;;;;;;;4.35;3.95;;;26.20;99.90;;;;;;5012856;28;20033;-90
2021/06/28 09:50:07;;;;;;;4.50;4.10;;;26.10;99.90;;;;;;5014441;28;20037;-90
2021/06/28 09:52:47;;;;;;;6.18;4.32;;;26.20;99.90;;;;;;5015390;28;20083;-94
2021/06/28 09:55:18;;;;;;;6.10;4.60;;;26.20;99.90;;;;;;5015742;28;20032;-95
2021/06/28 09:58:13;;;;;;;5.63;5.00;;;25.50;99.90;;;;;;5015605;28;20037;-90
2021/06/28 10:00:40;;;;;;;6.03;4.75;;;25.00;99.90;;;;;;5044149;28;20026;-92
2021/06/28 10:03:22;;;;;;;5.07;3.90;;;25.00;99.90;;;;;;5017237;28;20439;-94
2021/06/28 10:06:02;;;;;;;5.93;3.88;;;25.30;99.90;;;;;;5017587;28;20041;-91
2021/06/28 10:08:36;;;;;;;5.38;4.55;;;25.30;99.90;;;;;;5018828;28;20228;-91
2021/06/28 10:11:22;;;;;;;6.65;4.25;;;25.50;99.90;;;;;;5018425;28;20030;-93
2021/06/28 10:13:59;;;;;;;7.40;3.90;;;25.30;99.90;;;;;;5022181;28;20087;-93
2021/06/28 10:16:27;;;;;;;5.45;4.20;;;25.20;99.90;;;;;;5019404;28;20382;-92
2021/06/28 10:18:54;;;;;;;6.13;5.15;;;25.10;99.90;;;;;;5019110;28;20030;-92
2021/06/28 10:21:21;;;;;;;7.15;6.13;;;25.10;99.90;;;;;;5045137;28;20029;-96
2021/06/28 10:23:46;;;;;;;7.05;6.30;;;24.70;99.90;;;;;;5015224;28;20137;-92
2021/06/28 10:26:12;;;;;;;6.53;5.32;;;24.50;99.90;;;;;;5014797;28;20065;-92
2021/06/28 10:28:39;;;;;;;9.20;6.25;;;24.60;99.90;;;;;;5014699;28;20034;-93
2021/06/28 10:31:07;;;;;;;7.15;5.50;;;24.60;99.90;;;;;;5016771;28;20537;-94
2021/06/28 10:33:34;;;;;;;5.95;4.90;;;24.50;99.90;;;;;;5015667;28;20026;-94
2021/06/28 10:36:03;;;;;;;5.47;4.45;;;24.30;99.90;;;;;;5018361;28;20052;-92
2021/06/28 10:38:56;;;;;;;5.05;4.20;;;24.30;99.90;;;;;;5013793;28;20026;-94
2021/06/28 10:41:40;;;;;;;5.78;4.30;;;24.20;99.90;;;;;;5008652;28;20057;-92
2021/06/28 10:44:11;;;;;;;5.47;4.43;;;24.10;99.90;;;;;;5013537;28;20498;-94
2021/06/28 10:46:39;;;;;;;6.90;4.45;;;24.10;99.90;;;;;;5013540;28;20029;-91
2021/06/28 10:49:06;;;;;;;5.70;4.40;;;24.10;99.90;;;;;;5013005;28;20490;-92
2021/06/28 10:51:47;;;;;;;5.47;4.38;;;24.20;99.90;;;;;;5013075;28;20033;-92
2021/06/28 10:54:34;;;;;;;4.63;4.07;;;24.10;99.90;;;;;;5016412;28;20061;-92
2021/06/28 10:57:01;;;;;;;4.93;3.97;;;24.00;99.90;;;;;;5014513;28;20409;-95
2021/06/28 10:59:29;;;;;;;4.35;4.03;;;23.90;99.90;;;;;;5013544;28;20052;-92
2021/06/28 11:01:55;;;;;;;7.88;4.32;;;23.90;99.90;;;;;;5012941;28;20040;-94
2021/06/28 11:04:34;;;;;;;6.20;4.28;;;23.90;99.90;;;;;;5014238;28;20029;-91
2021/06/28 11:07:00;;;;;;;6.78;4.05;;;23.80;99.90;;;;;;4998384;28;20070;-88
2021/06/28 11:09:52;;;;;;;6.30;4.00;;;23.80;99.90;;;;;;5017084;28;20494;-96
2021/06/28 11:12:55;;;;;;;4.28;3.88;;;23.80;99.90;;;;;;5013418;28;20010;-96
2021/06/28 11:16:14;;;;;;;5.40;4.10;;;23.60;99.90;;;;;;5012899;28;20039;-96
2021/06/28 11:18:41;;;;;;;5.40;3.97;;;23.70;99.90;;;;;;5009333;28;20037;-96
2021/06/28 11:21:30;;;;;;;4.90;4.20;;;23.40;99.90;;;;;;5020275;28;20014;-96
2021/06/28 11:24:00;;;;;;;5.35;4.22;;;23.00;99.90;;;;;;4997309;28;20069;-90
2021/06/28 11:26:36;;;;;;;6.43;5.05;;;22.80;99.90;;;;;;5009570;28;20057;-89
2021/06/28 11:29:03;;;;;;;4.97;4.50;;;22.80;99.90;;;;;;5013301;28;20096;-89
2021/06/28 11:31:31;;;;;;;5.10;4.60;;;22.90;99.90;;;;;;5013632;28;20112;-90
2021/06/28 11:33:59;;;;;;;5.07;4.57;;;23.10;99.90;;;;;;5013034;28;20017;-90
2021/06/28 11:36:32;;;;;;;4.82;4.28;;;23.10;99.90;;;;;;5016120;28;20493;-90
2021/06/28 11:39:06;;;;;;;4.75;4.30;;;23.00;99.90;;;;;;5030910;28;20022;-90
2021/06/28 11:41:34;;;;;;;6.10;3.90;;;22.90;99.90;;;;;;5013649;28;20034;-89
2021/06/28 11:44:02;;;;;;;5.40;4.00;;;22.90;99.90;;;;;;5014281;28;20032;-89
2021/06/28 11:46:47;;;;;;;4.95;3.85;;;23.20;99.90;;;;;;5013436;28;20030;-90
2021/06/28 11:49:25;;;;;;;5.00;3.55;;;23.20;99.90;;;;;;5013758;28;20026;-91
2021/06/28 11:51:52;;;;;;;4.63;3.60;;;23.10;99.90;;;;;;5013179;28;20058;-90
2021/06/28 11:54:24;;;;;;;4.97;3.50;;;23.10;99.90;;;;;;5012113;28;20029;-89
2021/06/28 11:56:53;;;;;;;5.90;3.38;;;23.10;99.90;;;;;;5012731;28;20099;-90
2021/06/28 11:59:24;;;;;;;4.82;3.65;;;22.90;99.90;;;;;;5012735;28;20087;-90
2021/06/28 12:01:58;;;;;;;4.85;3.85;;;22.90;99.90;;;;;;5011246;28;20512;-90
2021/06/28 12:04:25;;;;;;;5.47;3.42;;;22.50;99.90;;;;;;5013142;28;20030;-90
2021/06/28 12:06:52;;;;;;;8.20;3.60;;;22.80;99.90;;;;;;5011314;28;20121;-89
2021/06/28 12:09:20;;;;;;;6.28;3.75;;;22.80;99.90;;;;;;5028261;28;20088;-90
2021/06/28 12:11:59;;;;;;;5.28;3.60;;;22.80;99.90;;;;;;5013588;28;20034;-90
2021/06/28 12:14:43;;;;;;;4.57;3.72;;;22.80;99.90;;;;;;5011782;28;20057;-90
2021/06/28 12:17:14;;;;;;;6.70;3.80;;;22.70;99.90;;;;;;5011666;28;20056;-90
2021/06/28 12:19:46;;;;;;;6.10;4.00;;;22.60;99.90;;;;;;5010236;28;20413;-91
2021/06/28 12:22:16;;;;;;;5.40;4.20;;;22.60;99.90;;;;;;5012072;28;20624;-90
2021/06/28 12:24:43;;;;;;;5.50;3.90;;;22.40;99.90;;;;;;5012655;28;20026;-90
2021/06/28 12:27:18;;;;;;;4.95;4.10;;;22.60;99.90;;;;;;5012927;28;20026;-91
2021/06/28 12:29:49;;;;;;;5.40;4.13;;;22.60;99.90;;;;;;5011639;28;20030;-90
2021/06/28 12:32:25;;;;;;;6.72;4.10;;;22.60;99.90;;;;;;5011248;28;20022;-91
2021/06/28 12:34:54;;;;;;;5.63;3.80;;;22.70;99.90;;;;;;5012910;28;20033;-90
2021/06/28 12:37:25;;;;;;;6.03;4.60;;;22.70;99.90;;;;;;5011695;28;20123;-90
2021/06/28 12:39:52;;;;;;;7.72;4.43;;;22.60;99.90;;;;;;5012023;28;20084;-90
2021/06/28 12:42:22;;;;;;;7.35;4.80;;;22.60;99.90;;;;;;5012912;28;20117;-89
2021/06/28 12:44:49;;;;;;;6.35;4.70;;;22.70;99.90;;;;;;5013901;28;20022;-89
2021/06/28 12:47:18;;;;;;;4.90;4.45;;;22.70;99.90;;;;;;5022659;28;20057;-95
2021/06/28 12:49:45;;;;;;;5.65;4.97;;;22.60;99.90;;;;;;5018441;28;20069;-96
2021/06/28 12:52:52;;;;;;;6.57;5.57;;;22.80;99.90;;;;;;5022747;28;20029;-95
2021/06/28 12:55:26;;;;;;;6.32;5.70;;;22.50;99.90;;;;;;5023735;28;20033;-96